Harbor Emperor — WCY6430 — position and weather

sailwx.info

Track history (hours):
 
Tides and Currents Weather Stations Pressure Air Temp Water Temp Dewpoint Dewpoint Depression Visibility Wind Speed Wind Dir Waves Ship Positions

Harbor Emperor

Owner: BLUE & GOLD FLEET, SAN FRANCISCO, CA. More information available from US FCC via Universal Licensing System and Coast Guard Vessel Documentation Center.

Last reported at 2014-Oct-24 17:33 UTC. Time now 2014-Oct-24 18:02 UTC.
Position N 37°49' W 122°27'.

Length 31 m.

Type: Passenger vessel. MMSI: 366985270.

Date/timePositionNaut miles runAvg speedWind from/ knotsBaromVisibWave heightAir tempDewpointWater temp
2014-Oct-24 17:33N 37°49' W 122°27'2 2.3
2014-Oct-24 16:33N 37°49' W 122°25'0 0.0
2014-Oct-24 15:33N 37°49' W 122°25'0 0.0
2014-Oct-24 14:33N 37°49' W 122°25'0 0.0
2014-Oct-24 13:33N 37°49' W 122°25'0 0.0
2014-Oct-24 12:33N 37°49' W 122°25'0 0.0
2014-Oct-24 11:33N 37°49' W 122°25'0 0.0
2014-Oct-24 10:33N 37°49' W 122°25'0 0.0
2014-Oct-24 09:33N 37°49' W 122°25'0 0.0
2014-Oct-24 08:33N 37°49' W 122°25'0 0.0
2014-Oct-24 07:33N 37°49' W 122°25'0 0.0
2014-Oct-24 06:33N 37°49' W 122°25'0 0.0
2014-Oct-24 05:33N 37°49' W 122°25'0 0.0
2014-Oct-24 04:33N 37°49' W 122°25'0 0.0
2014-Oct-24 03:33N 37°49' W 122°25'0 0.0
2014-Oct-24 02:33N 37°49' W 122°25'0 0.0
2014-Oct-24 01:33N 37°49' W 122°25'0 0.0
2014-Oct-24 00:33N 37°49' W 122°25'0 0.0
2014-Oct-23 23:33N 37°49' W 122°25'0 0.3
2014-Oct-23 22:34N 37°49' W 122°24'0 0.3
2014-Oct-23 21:33N 37°49' W 122°25'0 0.4
2014-Oct-23 20:33N 37°49' W 122°24'0 0.4
2014-Oct-23 19:33N 37°49' W 122°25'0 0.0
2014-Oct-23 18:33N 37°49' W 122°25'0 0.0
2014-Oct-23 17:33N 37°49' W 122°25'0 0.0
2014-Oct-23 16:33N 37°49' W 122°25'0 0.0
2014-Oct-23 15:34N 37°49' W 122°25'0 0.0
2014-Oct-23 14:33N 37°49' W 122°25'0 0.0
2014-Oct-23 13:33N 37°49' W 122°25'0 0.0
2014-Oct-23 12:33N 37°49' W 122°25'0 0.0
2014-Oct-23 11:33N 37°49' W 122°25'0 0.0
2014-Oct-23 10:33N 37°49' W 122°25'0 0.0
2014-Oct-23 09:33N 37°49' W 122°25'0 0.0
2014-Oct-23 08:33N 37°49' W 122°25'0 0.0
2014-Oct-23 07:33N 37°49' W 122°25'0 0.0
2014-Oct-23 06:33N 37°49' W 122°25'0 0.0
2014-Oct-23 05:33N 37°49' W 122°25'0 0.0
2014-Oct-23 04:33N 37°49' W 122°25'0 0.0
2014-Oct-23 03:33N 37°49' W 122°25'0 0.0
2014-Oct-23 02:33N 37°49' W 122°25'0 0.0
2014-Oct-23 01:33N 37°49' W 122°25'0 0.0
2014-Oct-23 00:33N 37°49' W 122°25'0 0.0
2014-Oct-22 23:34N 37°49' W 122°25'0 0.0
2014-Oct-22 22:33N 37°49' W 122°25'0 0.0
2014-Oct-22 21:33N 37°49' W 122°25'0 0.0
2014-Oct-22 20:33N 37°49' W 122°25'0 0.0
2014-Oct-22 19:33N 37°49' W 122°25'0 0.0
2014-Oct-22 18:33N 37°49' W 122°25'0 0.0
2014-Oct-22 17:33N 37°49' W 122°25'0 0.0
2014-Oct-22 16:33N 37°49' W 122°25'0 0.0
2014-Oct-22 15:33N 37°49' W 122°25'0 0.0
2014-Oct-22 14:33N 37°49' W 122°25'0 0.0
2014-Oct-22 13:33N 37°49' W 122°25'0 0.0
2014-Oct-22 12:33N 37°49' W 122°25'0 0.0
2014-Oct-22 11:33N 37°49' W 122°25'0 0.0
2014-Oct-22 10:33N 37°49' W 122°25'0 0.0
2014-Oct-22 09:33N 37°49' W 122°25'0 0.0
2014-Oct-22 08:33N 37°49' W 122°25'0 0.0
2014-Oct-22 07:33N 37°49' W 122°25'0 0.0
2014-Oct-22 06:33N 37°49' W 122°25'0 0.0
2014-Oct-22 05:33N 37°49' W 122°25'0 0.0
2014-Oct-22 04:33N 37°49' W 122°25'0 0.0
2014-Oct-22 00:27N 37°49' W 122°25'0 0.1
2014-Oct-21 23:33N 37°49' W 122°25'3 3.2
2014-Oct-21 22:33N 37°49' W 122°29'3 3.3
2014-Oct-21 21:34N 37°49' W 122°25'3 3.3
2014-Oct-21 20:34N 37°49' W 122°29'4 4.4
2014-Oct-21 19:33N 37°48' W 122°23'1 1.3
2014-Oct-21 18:34N 37°49' W 122°25'3 2.8
2014-Oct-21 17:33N 37°49' W 122°28'3 0.2
2014-Oct-21 00:31N 37°49' W 122°25'0 0.0
2014-Oct-20 23:33N 37°49' W 122°25'2 2.4
2014-Oct-20 22:34N 37°49' W 122°28'2 2.4
2014-Oct-20 21:33N 37°49' W 122°25'3 2.6
2014-Oct-20 20:34N 37°49' W 122°28'2 2.2
2014-Oct-20 19:34N 37°50' W 122°25'1 1.1
2014-Oct-20 18:33N 37°49' W 122°25'2 1.6
2014-Oct-20 17:32N 37°49' W 122°27'2 1.7
2014-Oct-20 16:34N 37°49' W 122°25'0 0.0
2014-Oct-20 15:32N 37°49' W 122°25'0 0.0
2014-Oct-20 14:32N 37°49' W 122°25'0 0.0
2014-Oct-20 13:32N 37°49' W 122°25'0 0.0
2014-Oct-20 12:32N 37°49' W 122°25'0 0.0
2014-Oct-20 11:32N 37°49' W 122°25'0 0.0
2014-Oct-20 00:26N 37°49' W 122°25'0 0.1
2014-Oct-19 23:33N 37°49' W 122°25'3 2.9
2014-Oct-19 22:33N 37°49' W 122°28'3 3.0
2014-Oct-19 21:33N 37°49' W 122°25'3 2.7
2014-Oct-19 20:33N 37°49' W 122°28'3 3.2
2014-Oct-19 19:33N 37°49' W 122°24'1 0.7
2014-Oct-19 18:33N 37°49' W 122°25'0 0.0
2014-Oct-19 17:33N 37°49' W 122°25'0 0.0
2014-Oct-19 04:33N 37°49' W 122°25'1 0.6
2014-Oct-19 03:33N 37°49' W 122°25'1 0.6
2014-Oct-19 02:33N 37°49' W 122°25'0 0.0
2014-Oct-19 01:33N 37°49' W 122°25'3 3.0
2014-Oct-19 00:33N 37°49' W 122°28'3 3.0
2014-Oct-18 23:33N 37°49' W 122°25'1 0.6
2014-Oct-18 22:33N 37°49' W 122°25'1 0.8
2014-Oct-18 21:33N 37°49' W 122°25'1 0.8
2014-Oct-18 20:33N 37°49' W 122°25'2 2.2
2014-Oct-18 19:33N 37°49' W 122°27'2 2.2
2014-Oct-18 18:33N 37°49' W 122°25'1 0.7
2014-Oct-18 17:33N 37°49' W 122°25'0 0.0
2014-Oct-18 16:32N 37°49' W 122°25'0 0.0
2014-Oct-18 15:29N 37°49' W 122°25'0 0.0
2014-Oct-18 14:32N 37°49' W 122°25'0 0.0
2014-Oct-18 13:29N 37°49' W 122°25'0 0.0
2014-Oct-18 12:32N 37°49' W 122°25'0 0.0
2014-Oct-18 11:32N 37°49' W 122°25'0 0.0
2014-Oct-18 10:29N 37°49' W 122°25'0 0.0
2014-Oct-18 09:32N 37°49' W 122°25'0 0.0
2014-Oct-18 08:32N 37°49' W 122°25'0 0.0
2014-Oct-18 07:32N 37°49' W 122°25'0 0.0
2014-Oct-18 06:29N 37°49' W 122°25'0 0.0
2014-Oct-18 05:32N 37°49' W 122°25'0 0.0
2014-Oct-18 04:29N 37°49' W 122°25'0 0.0
2014-Oct-18 03:32N 37°49' W 122°25'0 0.0
2014-Oct-18 02:32N 37°49' W 122°25'0 0.0
2014-Oct-18 01:32N 37°49' W 122°25'0 0.0
2014-Oct-18 00:32N 37°49' W 122°25'0 0.1
2014-Oct-17 23:34N 37°49' W 122°25'2 2.4
2014-Oct-17 22:32N 37°49' W 122°28'2 2.4
2014-Oct-17 21:31N 37°49' W 122°25'2 2.6
2014-Oct-17 20:33N 37°49' W 122°28'4 3.5
2014-Oct-17 19:33N 37°48' W 122°23'1 1.2
2014-Oct-17 18:33N 37°49' W 122°25'3 2.9
2014-Oct-17 17:34N 37°49' W 122°28'3 0.1
2014-Oct-15 23:14N 37°49' W 122°25'4 5.6
2014-Oct-15 22:33N 37°52' W 122°26'4 3.8
2014-Oct-15 21:33N 37°49' W 122°25'1 0.9
2014-Oct-15 20:33N 37°49' W 122°25'1 0.8
2014-Oct-15 19:33N 37°49' W 122°25'4 3.8
2014-Oct-15 18:33N 37°52' W 122°26'  
Track history (hours):
 
Tides and Currents Weather Stations Pressure Air Temp Water Temp Dewpoint Dewpoint Depression Visibility Wind Speed Wind Dir Waves Ship Positions

Harbor Emperor

Owner: BLUE & GOLD FLEET, SAN FRANCISCO, CA. More information available from US FCC via Universal Licensing System and Coast Guard Vessel Documentation Center.

Last reported at 2014-Oct-24 17:33 UTC. Time now 2014-Oct-24 18:03 UTC.
Position N 37°49' W 122°27'.

Length 31 m.

Type: Passenger vessel. MMSI: 366985270.

Date/timePositionNaut miles runAvg speedWind from/ knotsBaromVisibWave heightAir tempDewpointWater temp
2014-Oct-24 17:33N 37°49' W 122°27'2 2.3
2014-Oct-24 16:33N 37°49' W 122°25'0 0.0
2014-Oct-24 15:33N 37°49' W 122°25'0 0.0
2014-Oct-24 14:33N 37°49' W 122°25'0 0.0
2014-Oct-24 13:33N 37°49' W 122°25'0 0.0
2014-Oct-24 12:33N 37°49' W 122°25'0 0.0
2014-Oct-24 11:33N 37°49' W 122°25'0 0.0
2014-Oct-24 10:33N 37°49' W 122°25'0 0.0
2014-Oct-24 09:33N 37°49' W 122°25'0 0.0
2014-Oct-24 08:33N 37°49' W 122°25'0 0.0
2014-Oct-24 07:33N 37°49' W 122°25'0 0.0
2014-Oct-24 06:33N 37°49' W 122°25'0 0.0
2014-Oct-24 05:33N 37°49' W 122°25'0 0.0
2014-Oct-24 04:33N 37°49' W 122°25'0 0.0
2014-Oct-24 03:33N 37°49' W 122°25'0 0.0
2014-Oct-24 02:33N 37°49' W 122°25'0 0.0
2014-Oct-24 01:33N 37°49' W 122°25'0 0.0
2014-Oct-24 00:33N 37°49' W 122°25'0 0.0
2014-Oct-23 23:33N 37°49' W 122°25'0 0.3
2014-Oct-23 22:34N 37°49' W 122°24'0 0.3
2014-Oct-23 21:33N 37°49' W 122°25'0 0.4
2014-Oct-23 20:33N 37°49' W 122°24'0 0.4
2014-Oct-23 19:33N 37°49' W 122°25'0 0.0
2014-Oct-23 18:33N 37°49' W 122°25'0 0.0
2014-Oct-23 17:33N 37°49' W 122°25'0 0.0
2014-Oct-23 16:33N 37°49' W 122°25'0 0.0
2014-Oct-23 15:34N 37°49' W 122°25'0 0.0
2014-Oct-23 14:33N 37°49' W 122°25'0 0.0
2014-Oct-23 13:33N 37°49' W 122°25'0 0.0
2014-Oct-23 12:33N 37°49' W 122°25'0 0.0
2014-Oct-23 11:33N 37°49' W 122°25'0 0.0
2014-Oct-23 10:33N 37°49' W 122°25'0 0.0
2014-Oct-23 09:33N 37°49' W 122°25'0 0.0
2014-Oct-23 08:33N 37°49' W 122°25'0 0.0
2014-Oct-23 07:33N 37°49' W 122°25'0 0.0
2014-Oct-23 06:33N 37°49' W 122°25'0 0.0
2014-Oct-23 05:33N 37°49' W 122°25'0 0.0
2014-Oct-23 04:33N 37°49' W 122°25'0 0.0
2014-Oct-23 03:33N 37°49' W 122°25'0 0.0
2014-Oct-23 02:33N 37°49' W 122°25'0 0.0
2014-Oct-23 01:33N 37°49' W 122°25'0 0.0
2014-Oct-23 00:33N 37°49' W 122°25'0 0.0
2014-Oct-22 23:34N 37°49' W 122°25'0 0.0
2014-Oct-22 22:33N 37°49' W 122°25'0 0.0
2014-Oct-22 21:33N 37°49' W 122°25'0 0.0
2014-Oct-22 20:33N 37°49' W 122°25'0 0.0
2014-Oct-22 19:33N 37°49' W 122°25'0 0.0
2014-Oct-22 18:33N 37°49' W 122°25'0 0.0
2014-Oct-22 17:33N 37°49' W 122°25'0 0.0
2014-Oct-22 16:33N 37°49' W 122°25'0 0.0
2014-Oct-22 15:33N 37°49' W 122°25'0 0.0
2014-Oct-22 14:33N 37°49' W 122°25'0 0.0
2014-Oct-22 13:33N 37°49' W 122°25'0 0.0
2014-Oct-22 12:33N 37°49' W 122°25'0 0.0
2014-Oct-22 11:33N 37°49' W 122°25'0 0.0
2014-Oct-22 10:33N 37°49' W 122°25'0 0.0
2014-Oct-22 09:33N 37°49' W 122°25'0 0.0
2014-Oct-22 08:33N 37°49' W 122°25'0 0.0
2014-Oct-22 07:33N 37°49' W 122°25'0 0.0
2014-Oct-22 06:33N 37°49' W 122°25'0 0.0
2014-Oct-22 05:33N 37°49' W 122°25'0 0.0
2014-Oct-22 04:33N 37°49' W 122°25'0 0.0
2014-Oct-22 00:27N 37°49' W 122°25'0 0.1
2014-Oct-21 23:33N 37°49' W 122°25'3 3.2
2014-Oct-21 22:33N 37°49' W 122°29'3 3.3
2014-Oct-21 21:34N 37°49' W 122°25'3 3.3
2014-Oct-21 20:34N 37°49' W 122°29'4 4.4
2014-Oct-21 19:33N 37°48' W 122°23'1 1.3
2014-Oct-21 18:34N 37°49' W 122°25'3 2.8
2014-Oct-21 17:33N 37°49' W 122°28'3 0.2
2014-Oct-21 00:31N 37°49' W 122°25'0 0.0
2014-Oct-20 23:33N 37°49' W 122°25'2 2.4
2014-Oct-20 22:34N 37°49' W 122°28'2 2.4
2014-Oct-20 21:33N 37°49' W 122°25'3 2.6
2014-Oct-20 20:34N 37°49' W 122°28'2 2.2
2014-Oct-20 19:34N 37°50' W 122°25'1 1.1
2014-Oct-20 18:33N 37°49' W 122°25'2 1.6
2014-Oct-20 17:32N 37°49' W 122°27'2 1.7
2014-Oct-20 16:34N 37°49' W 122°25'0 0.0
2014-Oct-20 15:32N 37°49' W 122°25'0 0.0
2014-Oct-20 14:32N 37°49' W 122°25'0 0.0
2014-Oct-20 13:32N 37°49' W 122°25'0 0.0
2014-Oct-20 12:32N 37°49' W 122°25'0 0.0
2014-Oct-20 11:32N 37°49' W 122°25'0 0.0
2014-Oct-20 00:26N 37°49' W 122°25'0 0.1
2014-Oct-19 23:33N 37°49' W 122°25'3 2.9
2014-Oct-19 22:33N 37°49' W 122°28'3 3.0
2014-Oct-19 21:33N 37°49' W 122°25'3 2.7
2014-Oct-19 20:33N 37°49' W 122°28'3 3.2
2014-Oct-19 19:33N 37°49' W 122°24'1 0.7
2014-Oct-19 18:33N 37°49' W 122°25'0 0.0
2014-Oct-19 17:33N 37°49' W 122°25'0 0.0
2014-Oct-19 04:33N 37°49' W 122°25'1 0.6
2014-Oct-19 03:33N 37°49' W 122°25'1 0.6
2014-Oct-19 02:33N 37°49' W 122°25'0 0.0
2014-Oct-19 01:33N 37°49' W 122°25'3 3.0
2014-Oct-19 00:33N 37°49' W 122°28'3 3.0
2014-Oct-18 23:33N 37°49' W 122°25'1 0.6
2014-Oct-18 22:33N 37°49' W 122°25'1 0.8
2014-Oct-18 21:33N 37°49' W 122°25'1 0.8
2014-Oct-18 20:33N 37°49' W 122°25'2 2.2
2014-Oct-18 19:33N 37°49' W 122°27'2 2.2
2014-Oct-18 18:33N 37°49' W 122°25'1 0.7
2014-Oct-18 17:33N 37°49' W 122°25'0 0.0
2014-Oct-18 16:32N 37°49' W 122°25'0 0.0
2014-Oct-18 15:29N 37°49' W 122°25'0 0.0
2014-Oct-18 14:32N 37°49' W 122°25'0 0.0
2014-Oct-18 13:29N 37°49' W 122°25'0 0.0
2014-Oct-18 12:32N 37°49' W 122°25'0 0.0
2014-Oct-18 11:32N 37°49' W 122°25'0 0.0
2014-Oct-18 10:29N 37°49' W 122°25'0 0.0
2014-Oct-18 09:32N 37°49' W 122°25'0 0.0
2014-Oct-18 08:32N 37°49' W 122°25'0 0.0
2014-Oct-18 07:32N 37°49' W 122°25'0 0.0
2014-Oct-18 06:29N 37°49' W 122°25'0 0.0
2014-Oct-18 05:32N 37°49' W 122°25'0 0.0
2014-Oct-18 04:29N 37°49' W 122°25'0 0.0
2014-Oct-18 03:32N 37°49' W 122°25'0 0.0
2014-Oct-18 02:32N 37°49' W 122°25'0 0.0
2014-Oct-18 01:32N 37°49' W 122°25'0 0.0
2014-Oct-18 00:32N 37°49' W 122°25'0 0.1
2014-Oct-17 23:34N 37°49' W 122°25'2 2.4
2014-Oct-17 22:32N 37°49' W 122°28'2 2.4
2014-Oct-17 21:31N 37°49' W 122°25'2 2.6
2014-Oct-17 20:33N 37°49' W 122°28'4 3.5
2014-Oct-17 19:33N 37°48' W 122°23'1 1.2
2014-Oct-17 18:33N 37°49' W 122°25'3 2.9
2014-Oct-17 17:34N 37°49' W 122°28'3 0.1
2014-Oct-15 23:14N 37°49' W 122°25'4 5.6
2014-Oct-15 22:33N 37°52' W 122°26'4 3.8
2014-Oct-15 21:33N 37°49' W 122°25'1 0.9
2014-Oct-15 20:33N 37°49' W 122°25'1 0.8
2014-Oct-15 19:33N 37°49' W 122°25'4 3.8
2014-Oct-15 18:33N 37°52' W 122°26'  

Dump ship's entire track history